Time,TemperatureF,DewpointF,PressureIn,WindDirection,WindDirectionDegrees,WindSpeedMPH,WindSpeedGustMPH,Humidity,HourlyPrecipIn,Conditions,Clouds,dailyrainin,SoftwareType,DateUTC
2013-09-13 00:00:00,63.2,60.2,29.94,SSE,152,0.0,10.0,90,0.00,,,0.73,Wunderground v.1.15,2013-09-13 06:00:00,
2013-09-13 00:10:00,63.4,60.4,29.94,SSE,152,0.0,0.0,90,0.00,,,0.00,Wunderground v.1.15,2013-09-13 06:10:00,
2013-09-13 00:20:00,63.7,60.4,29.94,SSE,152,0.0,0.0,89,0.00,,,0.00,Wunderground v.1.15,2013-09-13 06:20:00,
2013-09-13 00:30:00,64.0,60.7,29.94,SSE,152,0.0,0.0,89,0.00,,,0.00,Wunderground v.1.15,2013-09-13 06:30:00,
2013-09-13 00:40:00,63.8,60.5,29.93,SSE,152,0.0,0.0,89,0.00,,,0.01,Wunderground v.1.15,2013-09-13 06:40:00,
2013-09-13 00:50:00,63.9,61.2,29.93,SSE,152,0.0,0.0,91,0.00,,,0.01,Wunderground v.1.15,2013-09-13 06:50:00,
2013-09-13 01:00:00,63.7,61.3,29.93,SSE,152,0.0,0.0,92,0.00,,,0.01,Wunderground v.1.15,2013-09-13 07:00:00,
2013-09-13 01:10:00,63.6,61.2,29.93,SSE,152,0.0,2.0,92,0.00,,,0.01,Wunderground v.1.15,2013-09-13 07:10:00,
2013-09-13 01:20:00,63.6,61.2,29.92,SSE,152,0.0,2.0,92,0.00,,,0.01,Wunderground v.1.15,2013-09-13 07:20:00,
2013-09-13 01:30:00,63.7,61.6,29.93,SSE,152,0.0,2.0,93,0.00,,,0.01,Wunderground v.1.15,2013-09-13 07:30:00,
2013-09-13 01:40:00,63.7,61.3,29.93,SSE,152,0.0,2.0,92,0.00,,,0.01,Wunderground v.1.15,2013-09-13 07:40:00,
2013-09-13 01:50:00,64.0,61.0,29.92,SSE,152,1.0,2.0,90,0.00,,,0.01,Wunderground v.1.15,2013-09-13 07:50:00,
2013-09-13 02:00:00,64.3,61.0,29.92,SSE,152,1.0,1.0,89,0.00,,,0.02,Wunderground v.1.15,2013-09-13 08:00:00,
2013-09-13 02:10:00,63.8,60.8,29.91,SSE,152,0.0,2.0,90,0.09,,,0.03,Wunderground v.1.15,2013-09-13 08:10:00,
2013-09-13 02:20:00,63.6,60.9,29.92,SSE,152,0.0,2.0,91,0.04,,,0.03,Wunderground v.1.15,2013-09-13 08:20:00,
2013-09-13 02:30:00,63.4,60.7,29.91,SSE,152,0.0,2.0,91,0.00,,,0.04,Wunderground v.1.15,2013-09-13 08:30:00,
2013-09-13 02:40:00,63.4,60.7,29.91,SSE,152,0.0,2.0,91,0.00,,,0.04,Wunderground v.1.15,2013-09-13 08:40:00,
2013-09-13 02:50:00,63.4,60.7,29.91,SSE,152,0.0,2.0,91,0.00,,,0.04,Wunderground v.1.15,2013-09-13 08:50:00,
2013-09-13 03:00:00,63.6,60.9,29.91,SSE,152,0.0,2.0,91,0.00,,,0.04,Wunderground v.1.15,2013-09-13 09:00:00,
2013-09-13 03:10:00,63.5,60.8,29.91,SSE,152,0.0,2.0,91,0.00,,,0.04,Wunderground v.1.15,2013-09-13 09:10:00,
2013-09-13 03:20:00,63.5,60.8,29.90,SSE,152,0.0,2.0,91,0.00,,,0.04,Wunderground v.1.15,2013-09-13 09:20:00,
2013-09-13 03:30:00,63.5,61.1,29.90,SSE,152,0.0,2.0,92,0.00,,,0.04,Wunderground v.1.15,2013-09-13 09:30:00,
2013-09-13 03:40:00,63.4,61.3,29.90,SSE,152,0.0,2.0,93,0.00,,,0.04,Wunderground v.1.15,2013-09-13 09:40:00,
2013-09-13 03:50:00,63.4,61.3,29.90,SSE,152,1.0,2.0,93,0.00,,,0.04,Wunderground v.1.15,2013-09-13 09:50:00,
2013-09-13 04:00:00,63.3,61.5,29.90,SSE,152,1.0,2.0,94,0.00,,,0.04,Wunderground v.1.15,2013-09-13 10:00:00,
2013-09-13 04:10:00,63.0,61.2,29.90,SSE,152,2.0,3.0,94,0.00,,,0.04,Wunderground v.1.15,2013-09-13 10:10:00,
2013-09-13 04:20:00,63.0,61.2,29.90,SSE,152,1.0,2.0,94,0.00,,,0.04,Wunderground v.1.15,2013-09-13 10:20:00,
2013-09-13 04:30:00,63.0,61.2,29.90,SSE,152,0.0,2.0,94,0.00,,,0.04,Wunderground v.1.15,2013-09-13 10:30:00,
2013-09-13 04:40:00,63.0,61.2,29.90,SSE,152,0.0,2.0,94,0.00,,,0.05,Wunderground v.1.15,2013-09-13 10:40:00,
2013-09-13 04:50:00,62.7,60.9,29.89,SSE,152,1.0,3.0,94,0.00,,,0.05,Wunderground v.1.15,2013-09-13 10:50:00,
2013-09-13 05:00:00,62.7,60.9,29.89,SSE,152,1.0,1.0,94,0.00,,,0.05,Wunderground v.1.15,2013-09-13 11:00:00,
2013-09-13 05:10:00,62.9,61.1,29.89,SSE,152,1.0,2.0,94,0.00,,,0.05,Wunderground v.1.15,2013-09-13 11:10:00,
2013-09-13 05:20:00,62.9,60.8,29.89,SSE,152,0.0,2.0,93,0.00,,,0.05,Wunderground v.1.15,2013-09-13 11:20:00,
2013-09-13 05:30:00,62.9,60.5,29.89,SSE,152,0.0,2.0,92,0.00,,,0.05,Wunderground v.1.15,2013-09-13 11:30:00,
2013-09-13 05:40:00,63.0,60.6,29.89,SSE,152,1.0,1.0,92,0.00,,,0.05,Wunderground v.1.15,2013-09-13 11:40:00,
2013-09-13 05:50:00,63.1,60.7,29.89,SSE,152,1.0,2.0,92,0.00,,,0.05,Wunderground v.1.15,2013-09-13 11:50:00,
2013-09-13 06:00:00,63.1,60.7,29.88,SSE,152,1.0,1.0,92,0.00,,,0.05,Wunderground v.1.15,2013-09-13 12:00:00,
2013-09-13 06:10:00,63.2,60.8,29.88,SSE,152,0.0,2.0,92,0.00,,,0.05,Wunderground v.1.15,2013-09-13 12:10:00,
2013-09-13 06:20:00,63.2,60.8,29.88,SSE,152,0.0,2.0,92,0.00,,,0.05,Wunderground v.1.15,2013-09-13 12:20:00,
2013-09-13 06:30:00,63.2,60.8,29.89,SSE,152,0.0,2.0,92,0.00,,,0.05,Wunderground v.1.15,2013-09-13 12:30:00,
2013-09-13 06:40:00,63.1,60.7,29.89,SSE,152,0.0,2.0,92,0.00,,,0.06,Wunderground v.1.15,2013-09-13 12:40:00,
2013-09-13 06:50:00,63.0,60.9,29.89,SSE,152,0.0,2.0,93,0.38,,,0.11,Wunderground v.1.15,2013-09-13 12:50:00,
2013-09-13 07:00:00,62.8,61.0,29.89,SSE,152,0.0,2.0,94,0.07,,,0.13,Wunderground v.1.15,2013-09-13 13:00:00,
2013-09-13 07:10:00,62.8,61.0,29.90,SSE,152,0.0,2.0,94,0.32,,,0.16,Wunderground v.1.15,2013-09-13 13:10:00,
2013-09-13 07:20:00,62.4,60.7,29.90,SSE,152,0.0,2.0,94,0.09,,,0.18,Wunderground v.1.15,2013-09-13 13:20:00,
2013-09-13 07:30:00,62.1,60.4,29.89,SSE,152,0.0,2.0,94,0.05,,,0.18,Wunderground v.1.15,2013-09-13 13:30:00,
2013-09-13 07:40:00,62.1,60.4,29.90,SSE,152,0.0,2.0,94,0.00,,,0.19,Wunderground v.1.15,2013-09-13 13:40:00,
2013-09-13 07:50:00,62.2,60.5,29.90,SSE,152,0.0,2.0,94,0.00,,,0.19,Wunderground v.1.15,2013-09-13 13:50:00,
2013-09-13 08:00:00,62.4,60.7,29.90,SSE,152,0.0,2.0,94,0.00,,,0.19,Wunderground v.1.15,2013-09-13 14:00:00,
2013-09-13 08:10:00,62.6,60.8,29.90,SSE,152,0.0,2.0,94,0.00,,,0.19,Wunderground v.1.15,2013-09-13 14:10:00,
2013-09-13 08:20:00,62.7,60.9,29.90,SSE,155,1.0,4.0,94,0.00,,,0.20,Wunderground v.1.15,2013-09-13 14:20:00,
2013-09-13 08:30:00,62.8,60.7,29.90,SSE,152,2.0,2.0,93,0.14,,,0.22,Wunderground v.1.15,2013-09-13 14:30:00,
2013-09-13 08:40:00,63.0,60.6,29.91,SSE,157,5.0,8.0,92,0.04,,,0.22,Wunderground v.1.15,2013-09-13 14:40:00,
2013-09-13 08:50:00,62.9,59.9,29.91,SSE,159,7.0,7.0,90,0.00,,,0.22,Wunderground v.1.15,2013-09-13 14:50:00,
2013-09-13 09:00:00,62.6,59.6,29.91,SSE,168,7.0,8.0,90,0.00,,,0.22,Wunderground v.1.15,2013-09-13 15:00:00,
2013-09-13 09:10:00,62.4,59.7,29.92,SE,141,5.0,7.0,91,0.00,,,0.22,Wunderground v.1.15,2013-09-13 15:10:00,
2013-09-13 09:20:00,62.2,59.5,29.92,SSE,165,5.0,5.0,91,0.00,,,0.22,Wunderground v.1.15,2013-09-13 15:20:00,
2013-09-13 09:30:00,62.3,59.6,29.93,South,173,5.0,5.0,91,0.00,,,0.23,Wunderground v.1.15,2013-09-13 15:30:00,
2013-09-13 09:40:00,62.6,59.9,29.94,South,173,3.0,3.0,91,0.00,,,0.23,Wunderground v.1.15,2013-09-13 15:40:00,
2013-09-13 09:50:00,62.9,60.2,29.94,South,184,3.0,7.0,91,0.00,,,0.23,Wunderground v.1.15,2013-09-13 15:50:00,
2013-09-13 10:00:00,63.4,60.4,29.95,South,185,3.0,4.0,90,0.00,,,0.23,Wunderground v.1.15,2013-09-13 16:00:00,
2013-09-13 10:10:00,63.8,60.2,29.95,South,180,5.0,5.0,88,0.00,,,0.23,Wunderground v.1.15,2013-09-13 16:10:00,
2013-09-13 10:20:00,64.2,60.2,29.94,South,178,3.0,4.0,87,0.00,,,0.23,Wunderground v.1.15,2013-09-13 16:20:00,
2013-09-13 10:30:00,64.2,60.2,29.94,SSE,165,4.0,7.0,87,0.00,,,0.23,Wunderground v.1.15,2013-09-13 16:30:00,
2013-09-13 10:40:00,64.1,60.2,29.93,ESE,115,4.0,4.0,87,0.00,,,0.23,Wunderground v.1.15,2013-09-13 16:40:00,
2013-09-13 10:50:00,64.2,60.6,29.92,East,81,3.0,3.0,88,0.00,,,0.23,Wunderground v.1.15,2013-09-13 16:50:00,
2013-09-13 11:00:00,64.3,60.0,29.94,ENE,70,1.0,1.0,86,0.00,,,0.23,Wunderground v.1.15,2013-09-13 17:00:00,
2013-09-13 11:10:00,64.4,60.4,29.94,ENE,70,0.0,2.0,87,0.00,,,0.23,Wunderground v.1.15,2013-09-13 17:10:00,
2013-09-13 11:20:00,64.4,59.5,29.94,NNE,22,1.0,4.0,84,0.00,,,0.23,Wunderground v.1.15,2013-09-13 17:20:00,
2013-09-13 11:30:00,62.7,58.1,29.93,North,355,4.0,4.0,85,0.00,,,0.23,Wunderground v.1.15,2013-09-13 17:30:00,
2013-09-13 11:40:00,62.3,58.1,29.93,NNW,338,4.0,4.0,86,0.00,,,0.23,Wunderground v.1.15,2013-09-13 17:40:00,
2013-09-13 11:50:00,62.4,57.8,29.93,NNW,327,4.0,4.0,85,0.00,,,0.23,Wunderground v.1.15,2013-09-13 17:50:00,
2013-09-13 12:00:00,63.3,58.0,29.93,NW,323,3.0,4.0,83,0.00,,,0.23,Wunderground v.1.15,2013-09-13 18:00:00,
2013-09-13 12:10:00,64.1,58.8,29.92,NNW,333,4.0,4.0,83,0.00,,,0.23,Wunderground v.1.15,2013-09-13 18:10:00,
2013-09-13 12:20:00,64.8,59.2,29.93,NW,324,3.0,4.0,82,0.00,,,0.23,Wunderground v.1.15,2013-09-13 18:20:00,
2013-09-13 12:30:00,66.2,59.5,29.92,NNW,346,4.0,5.0,79,0.00,,,0.23,Wunderground v.1.15,2013-09-13 18:30:00,
2013-09-13 12:40:00,67.1,59.3,29.92,North,351,4.0,8.0,76,0.00,,,0.23,Wunderground v.1.15,2013-09-13 18:40:00,
2013-09-13 12:50:00,66.8,59.0,29.91,NNW,331,4.0,4.0,76,0.00,,,0.23,Wunderground v.1.15,2013-09-13 18:50:00,
2013-09-13 13:00:00,66.1,59.0,29.91,NW,314,4.0,4.0,78,0.00,,,0.23,Wunderground v.1.15,2013-09-13 19:00:00,
2013-09-13 13:10:00,65.0,59.0,29.91,WNW,301,5.0,5.0,81,0.00,,,0.23,Wunderground v.1.15,2013-09-13 19:10:00,
2013-09-13 13:20:00,64.3,59.0,29.91,NNW,330,6.0,6.0,83,0.00,,,0.23,Wunderground v.1.15,2013-09-13 19:20:00,
2013-09-13 13:30:00,64.2,58.9,29.90,NW,311,6.0,6.0,83,0.00,,,0.23,Wunderground v.1.15,2013-09-13 19:30:00,
2013-09-13 13:40:00,64.3,59.4,29.90,North,355,5.0,5.0,84,0.00,,,0.23,Wunderground v.1.15,2013-09-13 19:40:00,
2013-09-13 13:50:00,65.0,59.7,29.90,NNE,28,5.0,5.0,83,0.00,,,0.23,Wunderground v.1.15,2013-09-13 19:50:00,
2013-09-13 14:00:00,66.1,60.4,29.89,NW,319,4.0,5.0,82,0.00,,,0.23,Wunderground v.1.15,2013-09-13 20:00:00,
2013-09-13 14:10:00,67.5,60.8,29.89,NW,314,5.0,6.0,79,0.00,,,0.23,Wunderground v.1.15,2013-09-13 20:10:00,
2013-09-13 14:20:00,68.4,60.9,29.88,NNW,344,4.0,4.0,77,0.00,,,0.23,Wunderground v.1.15,2013-09-13 20:20:00,
2013-09-13 14:30:00,69.3,61.0,29.87,NNW,345,4.0,4.0,75,0.00,,,0.23,Wunderground v.1.15,2013-09-13 20:30:00,
2013-09-13 14:40:00,70.4,60.9,29.87,NNW,330,3.0,4.0,72,0.00,,,0.23,Wunderground v.1.15,2013-09-13 20:40:00,
2013-09-13 14:50:00,70.9,61.0,29.86,NW,320,3.0,3.0,71,0.00,,,0.23,Wunderground v.1.15,2013-09-13 20:50:00,
2013-09-13 15:00:00,72.6,60.6,29.86,NW,319,2.0,3.0,66,0.00,,,0.23,Wunderground v.1.15,2013-09-13 21:00:00,
2013-09-13 15:10:00,72.5,60.1,29.85,West,269,3.0,3.0,65,0.00,,,0.23,Wunderground v.1.15,2013-09-13 21:10:00,
2013-09-13 15:20:00,72.2,60.2,29.85,West,274,2.0,2.0,66,0.00,,,0.23,Wunderground v.1.15,2013-09-13 21:20:00,
2013-09-13 15:30:00,73.6,59.8,29.85,WNW,296,1.0,2.0,62,0.00,,,0.23,Wunderground v.1.15,2013-09-13 21:30:00,
2013-09-13 15:40:00,73.3,59.0,29.84,WNW,295,1.0,2.0,61,0.00,,,0.23,Wunderground v.1.15,2013-09-13 21:40:00,
2013-09-13 15:50:00,73.0,58.3,29.84,WNW,286,2.0,2.0,60,0.00,,,0.23,Wunderground v.1.15,2013-09-13 21:50:00,
2013-09-13 16:00:00,73.1,57.9,29.84,WNW,285,1.0,4.0,59,0.00,,,0.23,Wunderground v.1.15,2013-09-13 22:00:00,
2013-09-13 16:10:00,72.5,57.4,29.83,West,265,3.0,3.0,59,0.00,,,0.23,Wunderground v.1.15,2013-09-13 22:10:00,
2013-09-13 16:20:00,72.9,57.3,29.83,West,265,2.0,2.0,58,0.00,,,0.23,Wunderground v.1.15,2013-09-13 22:20:00,
2013-09-13 16:30:00,74.1,57.4,29.83,West,268,1.0,1.0,56,0.00,,,0.23,Wunderground v.1.15,2013-09-13 22:30:00,
2013-09-13 16:40:00,74.3,57.1,29.83,West,268,1.0,1.0,55,0.00,,,0.23,Wunderground v.1.15,2013-09-13 22:40:00,
2013-09-13 16:50:00,73.8,59.0,29.84,WNW,292,1.0,3.0,60,0.00,,,0.23,Wunderground v.1.15,2013-09-13 22:50:00,
2013-09-13 17:00:00,72.2,58.5,29.84,NW,325,3.0,3.0,62,0.00,,,0.23,Wunderground v.1.15,2013-09-13 23:00:00,
2013-09-13 17:10:00,72.0,57.4,29.84,NW,325,1.0,1.0,60,0.00,,,0.23,Wunderground v.1.15,2013-09-13 23:10:00,
2013-09-13 17:20:00,71.7,57.5,29.84,NE,39,1.0,6.0,61,0.00,,,0.23,Wunderground v.1.15,2013-09-13 23:20:00,
2013-09-13 17:30:00,71.1,57.0,29.84,ENE,67,3.0,3.0,61,0.00,,,0.23,Wunderground v.1.15,2013-09-13 23:30:00,
2013-09-13 17:40:00,71.0,57.3,29.84,ENE,67,2.0,3.0,62,0.00,,,0.23,Wunderground v.1.15,2013-09-13 23:40:00,
2013-09-13 17:50:00,71.1,57.0,29.84,ENE,67,1.0,1.0,61,0.00,,,0.23,Wunderground v.1.15,2013-09-13 23:50:00,
2013-09-13 18:00:00,70.8,57.6,29.84,NE,54,3.0,5.0,63,0.00,,,0.23,Wunderground v.1.15,2013-09-14 00:00:00,
2013-09-13 18:10:00,70.2,57.4,29.83,NE,53,4.0,4.0,64,0.00,,,0.23,Wunderground v.1.15,2013-09-14 00:10:00,
2013-09-13 18:20:00,70.1,57.4,29.83,NE,53,4.0,4.0,64,0.00,,,0.23,Wunderground v.1.15,2013-09-14 00:20:00,
2013-09-13 18:30:00,70.1,57.8,29.83,NE,53,2.0,2.0,65,0.00,,,0.23,Wunderground v.1.15,2013-09-14 00:30:00,
2013-09-13 18:40:00,70.2,57.9,29.84,NE,53,1.0,2.0,65,0.00,,,0.23,Wunderground v.1.15,2013-09-14 00:40:00,
2013-09-13 18:50:00,70.0,57.3,29.84,NE,53,2.0,2.0,64,0.00,,,0.23,Wunderground v.1.15,2013-09-14 00:50:00,
2013-09-13 19:00:00,69.7,59.5,29.85,NE,53,1.0,1.0,70,0.72,,,0.28,Wunderground v.1.15,2013-09-14 01:00:00,
2013-09-13 19:10:00,64.2,57.9,29.85,SSW,213,5.0,6.0,80,2.22,,,0.62,Wunderground v.1.15,2013-09-14 01:10:00,
2013-09-13 19:20:00,62.0,58.4,29.85,ESE,107,3.0,3.0,88,0.56,,,0.75,Wunderground v.1.15,2013-09-14 01:20:00,
2013-09-13 19:30:00,61.7,58.1,29.85,ENE,78,2.0,3.0,88,0.07,,,0.76,Wunderground v.1.15,2013-09-14 01:30:00,
2013-09-13 19:40:00,62.3,59.0,29.84,ENE,78,1.0,1.0,89,0.00,,,0.76,Wunderground v.1.15,2013-09-14 01:40:00,
2013-09-13 19:50:00,62.6,59.0,29.85,ENE,78,0.0,2.0,88,0.00,,,0.76,Wunderground v.1.15,2013-09-14 01:50:00,
2013-09-13 20:00:00,63.2,58.9,29.84,ENE,78,1.0,1.0,86,0.00,,,0.76,Wunderground v.1.15,2013-09-14 02:00:00,
2013-09-13 20:10:00,63.6,58.7,29.84,ENE,78,1.0,1.0,84,0.00,,,0.76,Wunderground v.1.15,2013-09-14 02:10:00,
2013-09-13 20:20:00,63.8,59.5,29.85,ENE,78,0.0,2.0,86,0.00,,,0.76,Wunderground v.1.15,2013-09-14 02:20:00,
2013-09-13 20:30:00,64.1,59.5,29.85,ENE,78,0.0,2.0,85,0.00,,,0.76,Wunderground v.1.15,2013-09-14 02:30:00,
2013-09-13 20:40:00,64.9,59.3,29.86,SE,143,1.0,1.0,82,0.00,,,0.76,Wunderground v.1.15,2013-09-14 02:40:00,
2013-09-13 20:50:00,65.2,59.2,29.87,SE,145,1.0,1.0,81,0.00,,,0.76,Wunderground v.1.15,2013-09-14 02:50:00,
2013-09-13 21:00:00,64.8,59.5,29.87,SE,145,0.0,2.0,83,0.00,,,0.76,Wunderground v.1.15,2013-09-14 03:00:00,
2013-09-13 21:10:00,64.2,59.6,29.86,SE,145,0.0,2.0,85,0.00,,,0.76,Wunderground v.1.15,2013-09-14 03:10:00,
2013-09-13 21:20:00,63.6,59.7,29.87,SE,145,0.0,2.0,87,0.00,,,0.76,Wunderground v.1.15,2013-09-14 03:20:00,
2013-09-13 21:30:00,63.2,59.9,29.87,SE,145,0.0,2.0,89,0.00,,,0.76,Wunderground v.1.15,2013-09-14 03:30:00,
2013-09-13 21:40:00,62.9,59.9,29.88,SE,145,0.0,2.0,90,0.00,,,0.76,Wunderground v.1.15,2013-09-14 03:40:00,
2013-09-13 21:50:00,62.7,60.0,29.88,SE,145,0.0,2.0,91,0.00,,,0.76,Wunderground v.1.15,2013-09-14 03:50:00,
2013-09-13 22:00:00,62.5,59.8,29.87,SE,145,0.0,2.0,91,0.00,,,0.76,Wunderground v.1.15,2013-09-14 04:00:00,
2013-09-13 22:10:00,62.4,60.0,29.88,SE,145,0.0,2.0,92,0.00,,,0.76,Wunderground v.1.15,2013-09-14 04:10:00,
2013-09-13 22:20:00,62.2,59.8,29.88,SE,145,0.0,2.0,92,0.00,,,0.76,Wunderground v.1.15,2013-09-14 04:20:00,
2013-09-13 22:30:00,62.0,59.6,29.88,SE,145,0.0,2.0,92,0.00,,,0.76,Wunderground v.1.15,2013-09-14 04:30:00,
2013-09-13 22:40:00,61.8,59.5,29.88,SE,145,0.0,2.0,92,0.00,,,0.76,Wunderground v.1.15,2013-09-14 04:40:00,
2013-09-13 22:50:00,61.8,59.8,29.89,SE,145,0.0,2.0,93,0.00,,,0.76,Wunderground v.1.15,2013-09-14 04:50:00,
2013-09-13 23:00:00,61.8,59.8,29.89,SE,145,0.0,2.0,93,0.00,,,0.76,Wunderground v.1.15,2013-09-14 05:00:00,
2013-09-13 23:10:00,61.7,59.7,29.89,SE,145,0.0,2.0,93,0.00,,,0.76,Wunderground v.1.15,2013-09-14 05:10:00,
2013-09-13 23:20:00,61.3,59.0,29.88,SE,145,0.0,2.0,92,0.00,,,0.76,Wunderground v.1.15,2013-09-14 05:20:00,
2013-09-13 23:30:00,61.0,58.7,29.88,SE,145,0.0,2.0,92,0.00,,,0.76,Wunderground v.1.15,2013-09-14 05:30:00,
2013-09-13 23:40:00,60.7,58.4,29.88,SE,145,0.0,2.0,92,0.00,,,0.76,Wunderground v.1.15,2013-09-14 05:40:00,
2013-09-13 23:50:00,60.6,58.3,29.88,SE,145,0.0,2.0,92,0.00,,,0.76,Wunderground v.1.15,2013-09-14 05:50:00,